sensor_id;sensor_type;location;lat;lon;timestamp;P1;durP1;ratioP1;P2;durP2;ratioP2
29854;SDS011;16733;48.738;9.106;2022-10-22T00:01:48;0.43;;;0.43;;
29854;SDS011;16733;48.738;9.106;2022-10-22T00:04:13;0.63;;;0.47;;
29854;SDS011;16733;48.738;9.106;2022-10-22T00:06:39;4.00;;;0.40;;
29854;SDS011;16733;48.738;9.106;2022-10-22T00:09:06;4.47;;;0.75;;
29854;SDS011;16733;48.738;9.106;2022-10-22T00:11:32;1.23;;;0.30;;
29854;SDS011;16733;48.738;9.106;2022-10-22T00:13:58;3.70;;;0.40;;
29854;SDS011;16733;48.738;9.106;2022-10-22T00:16:23;1.25;;;0.40;;
29854;SDS011;16733;48.738;9.106;2022-10-22T00:18:49;2.90;;;0.60;;
29854;SDS011;16733;48.738;9.106;2022-10-22T00:21:15;1.58;;;0.47;;
29854;SDS011;16733;48.738;9.106;2022-10-22T00:23:41;0.73;;;0.40;;
29854;SDS011;16733;48.738;9.106;2022-10-22T00:26:07;3.45;;;0.50;;
29854;SDS011;16733;48.738;9.106;2022-10-22T00:28:33;3.42;;;0.38;;
29854;SDS011;16733;48.738;9.106;2022-10-22T00:30:59;0.35;;;0.35;;
29854;SDS011;16733;48.738;9.106;2022-10-22T00:33:25;1.90;;;0.60;;
29854;SDS011;16733;48.738;9.106;2022-10-22T00:35:52;0.73;;;0.40;;
29854;SDS011;16733;48.738;9.106;2022-10-22T00:38:17;0.85;;;0.35;;
29854;SDS011;16733;48.738;9.106;2022-10-22T00:40:43;0.75;;;0.40;;
29854;SDS011;16733;48.738;9.106;2022-10-22T00:43:10;3.58;;;0.40;;
29854;SDS011;16733;48.738;9.106;2022-10-22T00:49:02;0.47;;;0.40;;
29854;SDS011;16733;48.738;9.106;2022-10-22T00:51:29;4.07;;;0.60;;
29854;SDS011;16733;48.738;9.106;2022-10-22T00:54:02;1.75;;;0.40;;
29854;SDS011;16733;48.738;9.106;2022-10-22T00:58:59;4.90;;;0.65;;
29854;SDS011;16733;48.738;9.106;2022-10-22T01:01:27;4.25;;;2.08;;
29854;SDS011;16733;48.738;9.106;2022-10-22T01:03:55;1.25;;;0.70;;
29854;SDS011;16733;48.738;9.106;2022-10-22T01:06:24;0.93;;;0.40;;
29854;SDS011;16733;48.738;9.106;2022-10-22T01:12:06;1.52;;;0.40;;
29854;SDS011;16733;48.738;9.106;2022-10-22T01:29:46;1.85;;;0.50;;
29854;SDS011;16733;48.738;9.106;2022-10-22T01:32:16;0.50;;;0.50;;
29854;SDS011;16733;48.738;9.106;2022-10-22T01:34:47;2.05;;;0.55;;
29854;SDS011;16733;48.738;9.106;2022-10-22T01:37:16;0.98;;;0.50;;
29854;SDS011;16733;48.738;9.106;2022-10-22T01:43:21;2.65;;;0.40;;
29854;SDS011;16733;48.738;9.106;2022-10-22T01:51:44;3.20;;;0.50;;
29854;SDS011;16733;48.738;9.106;2022-10-22T01:54:30;0.35;;;0.35;;
29854;SDS011;16733;48.738;9.106;2022-10-22T02:00:06;0.70;;;0.40;;
29854;SDS011;16733;48.738;9.106;2022-10-22T02:05:23;0.43;;;0.43;;
29854;SDS011;16733;48.738;9.106;2022-10-22T02:10:35;1.70;;;0.43;;
29854;SDS011;16733;48.738;9.106;2022-10-22T02:13:17;3.05;;;0.63;;
29854;SDS011;16733;48.738;9.106;2022-10-22T02:15:49;4.63;;;0.60;;
29854;SDS011;16733;48.738;9.106;2022-10-22T02:18:17;1.75;;;0.50;;
29854;SDS011;16733;48.738;9.106;2022-10-22T02:20:45;6.55;;;0.40;;
29854;SDS011;16733;48.738;9.106;2022-10-22T02:26:34;3.22;;;0.50;;
29854;SDS011;16733;48.738;9.106;2022-10-22T02:35:01;0.70;;;0.50;;
29854;SDS011;16733;48.738;9.106;2022-10-22T02:37:28;0.35;;;0.35;;
29854;SDS011;16733;48.738;9.106;2022-10-22T02:39:54;1.90;;;0.60;;
29854;SDS011;16733;48.738;9.106;2022-10-22T02:42:24;2.13;;;0.57;;
29854;SDS011;16733;48.738;9.106;2022-10-22T02:44:52;0.88;;;0.43;;
29854;SDS011;16733;48.738;9.106;2022-10-22T02:47:17;1.23;;;0.50;;
29854;SDS011;16733;48.738;9.106;2022-10-22T02:49:43;5.57;;;0.55;;
29854;SDS011;16733;48.738;9.106;2022-10-22T02:52:09;4.03;;;0.60;;
29854;SDS011;16733;48.738;9.106;2022-10-22T02:57:56;0.75;;;0.50;;
29854;SDS011;16733;48.738;9.106;2022-10-22T03:00:22;4.13;;;0.43;;
29854;SDS011;16733;48.738;9.106;2022-10-22T03:06:10;0.88;;;0.50;;
29854;SDS011;16733;48.738;9.106;2022-10-22T03:08:35;1.42;;;1.05;;
29854;SDS011;16733;48.738;9.106;2022-10-22T03:11:01;0.35;;;0.35;;
29854;SDS011;16733;48.738;9.106;2022-10-22T03:16:49;0.40;;;0.40;;
29854;SDS011;16733;48.738;9.106;2022-10-22T03:19:14;0.32;;;0.30;;
29854;SDS011;16733;48.738;9.106;2022-10-22T03:25:03;2.65;;;0.50;;
29854;SDS011;16733;48.738;9.106;2022-10-22T03:27:34;4.90;;;1.83;;
29854;SDS011;16733;48.738;9.106;2022-10-22T03:30:02;1.85;;;0.90;;
29854;SDS011;16733;48.738;9.106;2022-10-22T03:32:28;1.38;;;0.50;;
29854;SDS011;16733;48.738;9.106;2022-10-22T03:34:54;1.45;;;0.40;;
29854;SDS011;16733;48.738;9.106;2022-10-22T03:37:20;0.68;;;0.47;;
29854;SDS011;16733;48.738;9.106;2022-10-22T03:39:46;2.72;;;0.40;;
29854;SDS011;16733;48.738;9.106;2022-10-22T03:42:12;1.50;;;0.50;;
29854;SDS011;16733;48.738;9.106;2022-10-22T03:44:37;0.40;;;0.30;;
29854;SDS011;16733;48.738;9.106;2022-10-22T03:47:05;0.40;;;0.40;;
29854;SDS011;16733;48.738;9.106;2022-10-22T03:49:30;2.63;;;0.40;;
29854;SDS011;16733;48.738;9.106;2022-10-22T03:51:56;1.50;;;0.47;;
29854;SDS011;16733;48.738;9.106;2022-10-22T03:54:22;1.88;;;0.43;;
29854;SDS011;16733;48.738;9.106;2022-10-22T03:56:47;12.73;;;0.75;;
29854;SDS011;16733;48.738;9.106;2022-10-22T03:59:13;1.17;;;0.50;;
29854;SDS011;16733;48.738;9.106;2022-10-22T04:01:39;1.30;;;0.50;;
29854;SDS011;16733;48.738;9.106;2022-10-22T04:04:04;1.30;;;0.38;;
29854;SDS011;16733;48.738;9.106;2022-10-22T04:06:30;0.50;;;0.50;;
29854;SDS011;16733;48.738;9.106;2022-10-22T04:08:55;0.30;;;0.30;;
29854;SDS011;16733;48.738;9.106;2022-10-22T04:11:21;2.35;;;0.70;;
29854;SDS011;16733;48.738;9.106;2022-10-22T04:13:47;0.52;;;0.43;;
29854;SDS011;16733;48.738;9.106;2022-10-22T04:16:13;2.30;;;0.47;;
29854;SDS011;16733;48.738;9.106;2022-10-22T04:18:41;2.15;;;0.95;;
29854;SDS011;16733;48.738;9.106;2022-10-22T04:21:08;3.35;;;0.50;;
29854;SDS011;16733;48.738;9.106;2022-10-22T04:23:38;0.45;;;0.40;;
29854;SDS011;16733;48.738;9.106;2022-10-22T04:26:08;2.58;;;0.60;;
29854;SDS011;16733;48.738;9.106;2022-10-22T04:28:33;1.30;;;0.57;;
29854;SDS011;16733;48.738;9.106;2022-10-22T04:30:59;0.30;;;0.30;;
29854;SDS011;16733;48.738;9.106;2022-10-22T04:36:47;5.45;;;0.50;;
29854;SDS011;16733;48.738;9.106;2022-10-22T04:39:13;0.30;;;0.30;;
29854;SDS011;16733;48.738;9.106;2022-10-22T04:45:00;4.00;;;0.45;;
29854;SDS011;16733;48.738;9.106;2022-10-22T04:47:26;0.93;;;0.60;;
29854;SDS011;16733;48.738;9.106;2022-10-22T04:53:14;1.10;;;0.40;;
29854;SDS011;16733;48.738;9.106;2022-10-22T04:55:39;1.77;;;0.50;;
29854;SDS011;16733;48.738;9.106;2022-10-22T04:58:05;1.48;;;0.50;;
29854;SDS011;16733;48.738;9.106;2022-10-22T05:03:53;1.77;;;0.40;;
29854;SDS011;16733;48.738;9.106;2022-10-22T05:06:20;3.45;;;0.52;;
29854;SDS011;16733;48.738;9.106;2022-10-22T05:08:47;0.80;;;0.43;;
29854;SDS011;16733;48.738;9.106;2022-10-22T05:11:18;0.50;;;0.43;;
29854;SDS011;16733;48.738;9.106;2022-10-22T05:13:46;0.52;;;0.50;;
29854;SDS011;16733;48.738;9.106;2022-10-22T05:16:12;2.05;;;0.50;;
29854;SDS011;16733;48.738;9.106;2022-10-22T05:18:39;0.30;;;0.30;;
29854;SDS011;16733;48.738;9.106;2022-10-22T05:21:07;1.20;;;0.50;;
29854;SDS011;16733;48.738;9.106;2022-10-22T05:23:41;1.35;;;0.50;;
29854;SDS011;16733;48.738;9.106;2022-10-22T05:26:08;2.15;;;0.60;;
29854;SDS011;16733;48.738;9.106;2022-10-22T05:28:35;1.38;;;0.80;;
29854;SDS011;16733;48.738;9.106;2022-10-22T05:31:01;5.13;;;0.60;;
29854;SDS011;16733;48.738;9.106;2022-10-22T05:37:27;3.53;;;0.55;;
29854;SDS011;16733;48.738;9.106;2022-10-22T05:39:53;1.63;;;0.32;;
29854;SDS011;16733;48.738;9.106;2022-10-22T05:42:18;4.38;;;0.73;;
29854;SDS011;16733;48.738;9.106;2022-10-22T05:44:44;0.88;;;0.45;;
29854;SDS011;16733;48.738;9.106;2022-10-22T05:47:10;0.40;;;0.40;;
29854;SDS011;16733;48.738;9.106;2022-10-22T05:49:36;2.65;;;0.50;;
29854;SDS011;16733;48.738;9.106;2022-10-22T05:52:02;2.78;;;0.50;;
29854;SDS011;16733;48.738;9.106;2022-10-22T05:54:27;0.30;;;0.30;;
29854;SDS011;16733;48.738;9.106;2022-10-22T05:56:53;1.65;;;0.55;;
29854;SDS011;16733;48.738;9.106;2022-10-22T05:59:19;3.47;;;0.52;;
29854;SDS011;16733;48.738;9.106;2022-10-22T06:01:45;1.60;;;0.52;;
29854;SDS011;16733;48.738;9.106;2022-10-22T06:04:11;1.77;;;0.82;;
29854;SDS011;16733;48.738;9.106;2022-10-22T06:09:59;0.50;;;0.50;;
29854;SDS011;16733;48.738;9.106;2022-10-22T06:12:25;0.60;;;0.32;;
29854;SDS011;16733;48.738;9.106;2022-10-22T06:18:15;2.40;;;0.52;;
29854;SDS011;16733;48.738;9.106;2022-10-22T06:20:42;1.15;;;0.50;;
29854;SDS011;16733;48.738;9.106;2022-10-22T06:23:09;0.50;;;0.32;;
29854;SDS011;16733;48.738;9.106;2022-10-22T06:25:35;0.60;;;0.40;;
29854;SDS011;16733;48.738;9.106;2022-10-22T06:31:23;2.75;;;0.50;;
29854;SDS011;16733;48.738;9.106;2022-10-22T06:37:11;1.67;;;0.50;;
29854;SDS011;16733;48.738;9.106;2022-10-22T06:39:39;1.45;;;0.43;;
29854;SDS011;16733;48.738;9.106;2022-10-22T06:42:05;0.75;;;0.30;;
29854;SDS011;16733;48.738;9.106;2022-10-22T06:44:30;1.70;;;0.30;;
29854;SDS011;16733;48.738;9.106;2022-10-22T06:50:18;0.73;;;0.50;;
29854;SDS011;16733;48.738;9.106;2022-10-22T06:56:10;0.65;;;0.40;;
29854;SDS011;16733;48.738;9.106;2022-10-22T06:58:37;1.75;;;0.40;;
29854;SDS011;16733;48.738;9.106;2022-10-22T07:01:04;3.53;;;0.50;;
29854;SDS011;16733;48.738;9.106;2022-10-22T07:03:31;1.02;;;0.50;;
29854;SDS011;16733;48.738;9.106;2022-10-22T07:06:00;1.15;;;0.90;;
29854;SDS011;16733;48.738;9.106;2022-10-22T07:08:27;1.45;;;0.90;;
29854;SDS011;16733;48.738;9.106;2022-10-22T07:10:53;2.83;;;1.67;;
29854;SDS011;16733;48.738;9.106;2022-10-22T07:13:20;5.05;;;1.30;;
29854;SDS011;16733;48.738;9.106;2022-10-22T07:15:51;1.48;;;0.80;;
29854;SDS011;16733;48.738;9.106;2022-10-22T07:18:19;2.38;;;0.82;;
29854;SDS011;16733;48.738;9.106;2022-10-22T07:20:46;1.02;;;0.50;;
29854;SDS011;16733;48.738;9.106;2022-10-22T07:23:12;3.45;;;0.93;;
29854;SDS011;16733;48.738;9.106;2022-10-22T07:25:37;1.13;;;0.40;;
29854;SDS011;16733;48.738;9.106;2022-10-22T07:28:03;0.73;;;0.60;;
29854;SDS011;16733;48.738;9.106;2022-10-22T07:30:29;1.13;;;0.60;;
29854;SDS011;16733;48.738;9.106;2022-10-22T07:32:54;0.70;;;0.50;;
29854;SDS011;16733;48.738;9.106;2022-10-22T07:38:42;2.00;;;1.15;;
29854;SDS011;16733;48.738;9.106;2022-10-22T07:41:13;0.55;;;0.45;;
29854;SDS011;16733;48.738;9.106;2022-10-22T07:47:02;0.93;;;0.57;;
29854;SDS011;16733;48.738;9.106;2022-10-22T07:49:28;1.05;;;0.60;;
29854;SDS011;16733;48.738;9.106;2022-10-22T07:58:38;3.28;;;0.90;;
29854;SDS011;16733;48.738;9.106;2022-10-22T08:01:04;0.80;;;0.57;;
29854;SDS011;16733;48.738;9.106;2022-10-22T08:03:29;0.75;;;0.50;;
29854;SDS011;16733;48.738;9.106;2022-10-22T08:05:55;1.67;;;0.60;;
29854;SDS011;16733;48.738;9.106;2022-10-22T08:08:21;2.30;;;1.00;;
29854;SDS011;16733;48.738;9.106;2022-10-22T08:10:47;2.15;;;0.70;;
29854;SDS011;16733;48.738;9.106;2022-10-22T08:13:16;1.73;;;0.90;;
29854;SDS011;16733;48.738;9.106;2022-10-22T08:15:42;1.55;;;0.80;;
29854;SDS011;16733;48.738;9.106;2022-10-22T08:18:08;1.10;;;0.85;;
29854;SDS011;16733;48.738;9.106;2022-10-22T08:20:34;3.03;;;0.50;;
29854;SDS011;16733;48.738;9.106;2022-10-22T08:26:21;0.77;;;0.60;;
29854;SDS011;16733;48.738;9.106;2022-10-22T08:28:47;2.88;;;1.50;;
29854;SDS011;16733;48.738;9.106;2022-10-22T08:34:35;1.52;;;0.82;;
29854;SDS011;16733;48.738;9.106;2022-10-22T08:37:00;2.92;;;0.63;;
29854;SDS011;16733;48.738;9.106;2022-10-22T08:39:26;2.88;;;0.70;;
29854;SDS011;16733;48.738;9.106;2022-10-22T08:42:13;1.45;;;0.60;;
29854;SDS011;16733;48.738;9.106;2022-10-22T08:53:12;0.73;;;0.60;;
29854;SDS011;16733;48.738;9.106;2022-10-22T08:55:42;1.20;;;0.60;;
29854;SDS011;16733;48.738;9.106;2022-10-22T09:01:12;3.15;;;0.45;;
29854;SDS011;16733;48.738;9.106;2022-10-22T09:06:26;0.73;;;0.50;;
29854;SDS011;16733;48.738;9.106;2022-10-22T09:12:16;0.70;;;0.50;;
29854;SDS011;16733;48.738;9.106;2022-10-22T09:26:49;1.20;;;0.45;;
29854;SDS011;16733;48.738;9.106;2022-10-22T09:29:20;0.77;;;0.40;;
29854;SDS011;16733;48.738;9.106;2022-10-22T09:31:50;0.73;;;0.50;;
29854;SDS011;16733;48.738;9.106;2022-10-22T09:34:19;0.38;;;0.38;;
29854;SDS011;16733;48.738;9.106;2022-10-22T09:43:57;1.60;;;0.50;;
29854;SDS011;16733;48.738;9.106;2022-10-22T09:46:26;0.40;;;0.40;;
29854;SDS011;16733;48.738;9.106;2022-10-22T09:49:05;0.70;;;0.40;;
29854;SDS011;16733;48.738;9.106;2022-10-22T09:56:57;2.25;;;0.40;;
29854;SDS011;16733;48.738;9.106;2022-10-22T09:59:30;0.73;;;0.32;;
29854;SDS011;16733;48.738;9.106;2022-10-22T10:01:59;0.32;;;0.30;;
29854;SDS011;16733;48.738;9.106;2022-10-22T10:07:57;2.13;;;0.50;;
29854;SDS011;16733;48.738;9.106;2022-10-22T10:18:38;0.98;;;0.57;;
29854;SDS011;16733;48.738;9.106;2022-10-22T10:24:14;0.93;;;0.35;;
29854;SDS011;16733;48.738;9.106;2022-10-22T10:27:33;0.88;;;0.30;;
29854;SDS011;16733;48.738;9.106;2022-10-22T10:36:33;0.57;;;0.40;;
29854;SDS011;16733;48.738;9.106;2022-10-22T10:42:20;1.02;;;0.30;;
29854;SDS011;16733;48.738;9.106;2022-10-22T10:53:33;0.98;;;0.38;;
29854;SDS011;16733;48.738;9.106;2022-10-22T11:05:01;2.03;;;0.32;;
29854;SDS011;16733;48.738;9.106;2022-10-22T11:07:53;1.20;;;0.63;;
29854;SDS011;16733;48.738;9.106;2022-10-22T11:18:42;1.50;;;0.55;;
29854;SDS011;16733;48.738;9.106;2022-10-22T11:23:55;2.72;;;1.00;;
29854;SDS011;16733;48.738;9.106;2022-10-22T11:26:49;4.57;;;1.25;;
29854;SDS011;16733;48.738;9.106;2022-10-22T11:29:34;2.53;;;0.80;;
29854;SDS011;16733;48.738;9.106;2022-10-22T11:32:05;2.23;;;0.60;;
29854;SDS011;16733;48.738;9.106;2022-10-22T11:34:44;4.60;;;0.60;;
29854;SDS011;16733;48.738;9.106;2022-10-22T11:37:12;1.98;;;0.50;;
29854;SDS011;16733;48.738;9.106;2022-10-22T11:39:44;1.05;;;0.65;;
29854;SDS011;16733;48.738;9.106;2022-10-22T11:45:34;1.23;;;0.52;;
29854;SDS011;16733;48.738;9.106;2022-10-22T11:48:17;2.17;;;0.30;;
29854;SDS011;16733;48.738;9.106;2022-10-22T11:50:45;5.40;;;0.75;;
29854;SDS011;16733;48.738;9.106;2022-10-22T12:01:41;2.13;;;0.55;;
29854;SDS011;16733;48.738;9.106;2022-10-22T12:04:14;2.28;;;0.50;;
29854;SDS011;16733;48.738;9.106;2022-10-22T12:10:05;2.15;;;0.50;;
29854;SDS011;16733;48.738;9.106;2022-10-22T12:16:05;1.58;;;0.52;;
29854;SDS011;16733;48.738;9.106;2022-10-22T12:18:38;1.92;;;0.38;;
29854;SDS011;16733;48.738;9.106;2022-10-22T12:24:29;3.17;;;0.30;;
29854;SDS011;16733;48.738;9.106;2022-10-22T12:26:58;1.38;;;0.35;;
29854;SDS011;16733;48.738;9.106;2022-10-22T12:32:46;1.83;;;0.70;;
29854;SDS011;16733;48.738;9.106;2022-10-22T12:35:19;1.58;;;0.30;;
29854;SDS011;16733;48.738;9.106;2022-10-22T12:37:50;2.78;;;0.43;;
29854;SDS011;16733;48.738;9.106;2022-10-22T12:42:53;2.15;;;0.40;;
29854;SDS011;16733;48.738;9.106;2022-10-22T12:45:25;0.75;;;0.30;;
29854;SDS011;16733;48.738;9.106;2022-10-22T12:47:57;1.25;;;0.40;;
29854;SDS011;16733;48.738;9.106;2022-10-22T12:53:54;1.10;;;0.30;;
29854;SDS011;16733;48.738;9.106;2022-10-22T12:56:26;2.45;;;0.38;;
29854;SDS011;16733;48.738;9.106;2022-10-22T12:59:34;1.60;;;0.50;;
29854;SDS011;16733;48.738;9.106;2022-10-22T13:02:03;0.95;;;0.32;;
29854;SDS011;16733;48.738;9.106;2022-10-22T13:05:42;2.47;;;0.50;;
29854;SDS011;16733;48.738;9.106;2022-10-22T13:07:52;0.68;;;0.47;;
29854;SDS011;16733;48.738;9.106;2022-10-22T13:10:26;1.02;;;0.50;;
29854;SDS011;16733;48.738;9.106;2022-10-22T13:12:56;0.70;;;0.30;;
29854;SDS011;16733;48.738;9.106;2022-10-22T13:18:31;1.92;;;0.40;;
29854;SDS011;16733;48.738;9.106;2022-10-22T13:20:53;3.60;;;0.40;;
29854;SDS011;16733;48.738;9.106;2022-10-22T13:23:25;3.03;;;0.50;;
29854;SDS011;16733;48.738;9.106;2022-10-22T13:26:02;2.13;;;0.60;;
29854;SDS011;16733;48.738;9.106;2022-10-22T13:28:40;3.55;;;1.13;;
29854;SDS011;16733;48.738;9.106;2022-10-22T13:31:13;3.80;;;0.40;;
29854;SDS011;16733;48.738;9.106;2022-10-22T13:33:45;0.50;;;0.28;;
29854;SDS011;16733;48.738;9.106;2022-10-22T13:36:15;2.65;;;0.22;;
29854;SDS011;16733;48.738;9.106;2022-10-22T13:38:42;2.97;;;0.40;;
29854;SDS011;16733;48.738;9.106;2022-10-22T13:41:21;4.07;;;1.17;;
29854;SDS011;16733;48.738;9.106;2022-10-22T13:43:49;0.60;;;0.30;;
29854;SDS011;16733;48.738;9.106;2022-10-22T13:46:15;2.03;;;0.50;;
29854;SDS011;16733;48.738;9.106;2022-10-22T13:52:04;1.27;;;0.40;;
29854;SDS011;16733;48.738;9.106;2022-10-22T13:54:29;1.33;;;0.30;;
29854;SDS011;16733;48.738;9.106;2022-10-22T14:00:18;1.63;;;0.30;;
29854;SDS011;16733;48.738;9.106;2022-10-22T14:02:48;0.63;;;0.30;;
29854;SDS011;16733;48.738;9.106;2022-10-22T14:08:39;1.42;;;0.43;;
29854;SDS011;16733;48.738;9.106;2022-10-22T14:11:07;0.82;;;0.40;;
29854;SDS011;16733;48.738;9.106;2022-10-22T14:13:35;0.73;;;0.30;;
29854;SDS011;16733;48.738;9.106;2022-10-22T14:19:23;4.68;;;1.23;;
29854;SDS011;16733;48.738;9.106;2022-10-22T14:21:48;0.85;;;0.40;;
29854;SDS011;16733;48.738;9.106;2022-10-22T14:24:14;1.58;;;0.60;;
29854;SDS011;16733;48.738;9.106;2022-10-22T14:26:40;0.98;;;0.50;;
29854;SDS011;16733;48.738;9.106;2022-10-22T14:29:05;1.90;;;0.40;;
29854;SDS011;16733;48.738;9.106;2022-10-22T14:31:31;3.20;;;0.63;;
29854;SDS011;16733;48.738;9.106;2022-10-22T14:33:57;0.90;;;0.40;;
29854;SDS011;16733;48.738;9.106;2022-10-22T14:36:23;1.40;;;0.50;;
29854;SDS011;16733;48.738;9.106;2022-10-22T14:38:48;3.10;;;0.40;;
29854;SDS011;16733;48.738;9.106;2022-10-22T14:41:21;4.85;;;1.13;;
29854;SDS011;16733;48.738;9.106;2022-10-22T14:43:48;1.35;;;0.40;;
29854;SDS011;16733;48.738;9.106;2022-10-22T14:46:15;2.00;;;0.65;;
29854;SDS011;16733;48.738;9.106;2022-10-22T14:48:41;1.60;;;0.47;;
29854;SDS011;16733;48.738;9.106;2022-10-22T14:54:29;2.53;;;0.32;;
29854;SDS011;16733;48.738;9.106;2022-10-22T14:56:55;5.45;;;0.52;;
29854;SDS011;16733;48.738;9.106;2022-10-22T14:59:20;2.17;;;0.40;;
29854;SDS011;16733;48.738;9.106;2022-10-22T15:01:46;1.38;;;0.47;;
29854;SDS011;16733;48.738;9.106;2022-10-22T15:04:12;2.83;;;0.43;;
29854;SDS011;16733;48.738;9.106;2022-10-22T15:06:37;2.67;;;0.40;;
29854;SDS011;16733;48.738;9.106;2022-10-22T15:09:03;8.43;;;0.45;;
29854;SDS011;16733;48.738;9.106;2022-10-22T15:11:28;5.32;;;0.40;;
29854;SDS011;16733;48.738;9.106;2022-10-22T15:13:54;1.27;;;0.40;;
29854;SDS011;16733;48.738;9.106;2022-10-22T15:19:42;2.10;;;0.55;;
29854;SDS011;16733;48.738;9.106;2022-10-22T15:22:08;4.95;;;0.43;;
29854;SDS011;16733;48.738;9.106;2022-10-22T15:27:57;3.38;;;0.40;;
29854;SDS011;16733;48.738;9.106;2022-10-22T15:30:22;4.68;;;0.40;;
29854;SDS011;16733;48.738;9.106;2022-10-22T15:32:48;1.10;;;0.50;;
29854;SDS011;16733;48.738;9.106;2022-10-22T15:35:13;3.75;;;0.60;;
29854;SDS011;16733;48.738;9.106;2022-10-22T15:37:39;1.83;;;0.40;;
29854;SDS011;16733;48.738;9.106;2022-10-22T15:40:05;4.32;;;0.57;;
29854;SDS011;16733;48.738;9.106;2022-10-22T15:42:32;2.75;;;0.35;;
29854;SDS011;16733;48.738;9.106;2022-10-22T15:44:58;4.20;;;0.43;;
29854;SDS011;16733;48.738;9.106;2022-10-22T15:50:46;2.17;;;0.50;;
29854;SDS011;16733;48.738;9.106;2022-10-22T15:53:11;2.60;;;0.45;;
29854;SDS011;16733;48.738;9.106;2022-10-22T15:55:37;0.70;;;0.47;;
29854;SDS011;16733;48.738;9.106;2022-10-22T15:58:02;1.23;;;0.43;;
29854;SDS011;16733;48.738;9.106;2022-10-22T16:00:28;2.25;;;0.75;;
29854;SDS011;16733;48.738;9.106;2022-10-22T16:02:53;6.72;;;0.70;;
29854;SDS011;16733;48.738;9.106;2022-10-22T16:05:19;4.80;;;0.63;;
29854;SDS011;16733;48.738;9.106;2022-10-22T16:07:45;3.28;;;0.50;;
29854;SDS011;16733;48.738;9.106;2022-10-22T16:10:10;1.70;;;0.55;;
29854;SDS011;16733;48.738;9.106;2022-10-22T16:12:37;1.92;;;0.68;;
29854;SDS011;16733;48.738;9.106;2022-10-22T16:15:05;2.42;;;1.08;;
29854;SDS011;16733;48.738;9.106;2022-10-22T16:17:31;3.88;;;1.05;;
29854;SDS011;16733;48.738;9.106;2022-10-22T16:19:57;5.53;;;0.93;;
29854;SDS011;16733;48.738;9.106;2022-10-22T16:22:22;4.75;;;1.23;;
29854;SDS011;16733;48.738;9.106;2022-10-22T16:24:48;4.82;;;1.55;;
29854;SDS011;16733;48.738;9.106;2022-10-22T16:30:36;2.15;;;0.60;;
29854;SDS011;16733;48.738;9.106;2022-10-22T16:33:03;4.38;;;1.13;;
29854;SDS011;16733;48.738;9.106;2022-10-22T16:38:52;3.78;;;1.10;;
29854;SDS011;16733;48.738;9.106;2022-10-22T16:41:21;4.50;;;0.95;;
29854;SDS011;16733;48.738;9.106;2022-10-22T16:43:48;5.85;;;1.20;;
29854;SDS011;16733;48.738;9.106;2022-10-22T16:46:18;9.63;;;1.20;;
29854;SDS011;16733;48.738;9.106;2022-10-22T16:48:45;4.55;;;1.60;;
29854;SDS011;16733;48.738;9.106;2022-10-22T16:51:12;3.45;;;1.55;;
29854;SDS011;16733;48.738;9.106;2022-10-22T16:53:40;1.08;;;0.75;;
29854;SDS011;16733;48.738;9.106;2022-10-22T16:59:28;2.92;;;1.05;;
29854;SDS011;16733;48.738;9.106;2022-10-22T17:01:54;7.13;;;1.38;;
29854;SDS011;16733;48.738;9.106;2022-10-22T17:04:20;5.30;;;1.27;;
29854;SDS011;16733;48.738;9.106;2022-10-22T17:06:46;3.63;;;1.13;;
29854;SDS011;16733;48.738;9.106;2022-10-22T17:09:12;12.77;;;1.48;;
29854;SDS011;16733;48.738;9.106;2022-10-22T17:11:37;5.68;;;2.13;;
29854;SDS011;16733;48.738;9.106;2022-10-22T17:14:03;10.80;;;1.80;;
29854;SDS011;16733;48.738;9.106;2022-10-22T17:16:29;4.47;;;2.10;;
29854;SDS011;16733;48.738;9.106;2022-10-22T17:22:16;4.32;;;1.98;;
29854;SDS011;16733;48.738;9.106;2022-10-22T17:24:42;5.75;;;2.63;;
29854;SDS011;16733;48.738;9.106;2022-10-22T17:27:08;6.18;;;2.20;;
29854;SDS011;16733;48.738;9.106;2022-10-22T17:29:35;9.27;;;2.58;;
29854;SDS011;16733;48.738;9.106;2022-10-22T17:32:01;9.73;;;2.70;;
29854;SDS011;16733;48.738;9.106;2022-10-22T17:34:27;5.63;;;2.25;;
29854;SDS011;16733;48.738;9.106;2022-10-22T17:36:54;11.30;;;2.60;;
29854;SDS011;16733;48.738;9.106;2022-10-22T17:42:46;5.13;;;1.98;;
29854;SDS011;16733;48.738;9.106;2022-10-22T17:45:13;7.97;;;1.63;;
29854;SDS011;16733;48.738;9.106;2022-10-22T17:47:39;4.47;;;1.33;;
29854;SDS011;16733;48.738;9.106;2022-10-22T17:50:04;5.85;;;1.48;;
29854;SDS011;16733;48.738;9.106;2022-10-22T17:52:30;5.05;;;1.83;;
29854;SDS011;16733;48.738;9.106;2022-10-22T17:54:56;4.03;;;1.30;;
29854;SDS011;16733;48.738;9.106;2022-10-22T17:57:21;3.42;;;1.38;;
29854;SDS011;16733;48.738;9.106;2022-10-22T17:59:47;5.15;;;2.03;;
29854;SDS011;16733;48.738;9.106;2022-10-22T18:02:16;4.80;;;2.20;;
29854;SDS011;16733;48.738;9.106;2022-10-22T18:04:42;5.45;;;2.05;;
29854;SDS011;16733;48.738;9.106;2022-10-22T18:07:08;7.10;;;1.75;;
29854;SDS011;16733;48.738;9.106;2022-10-22T18:16:18;9.02;;;1.63;;
29854;SDS011;16733;48.738;9.106;2022-10-22T18:18:45;3.72;;;1.80;;
29854;SDS011;16733;48.738;9.106;2022-10-22T18:21:12;5.38;;;1.55;;
29854;SDS011;16733;48.738;9.106;2022-10-22T18:23:39;4.32;;;1.75;;
29854;SDS011;16733;48.738;9.106;2022-10-22T18:26:05;3.50;;;1.30;;
29854;SDS011;16733;48.738;9.106;2022-10-22T18:28:31;7.05;;;1.80;;
29854;SDS011;16733;48.738;9.106;2022-10-22T18:30:57;3.20;;;1.30;;
29854;SDS011;16733;48.738;9.106;2022-10-22T18:33:23;10.30;;;2.65;;
29854;SDS011;16733;48.738;9.106;2022-10-22T18:39:12;9.23;;;3.15;;
29854;SDS011;16733;48.738;9.106;2022-10-22T18:41:39;8.95;;;1.80;;
29854;SDS011;16733;48.738;9.106;2022-10-22T18:47:27;6.32;;;1.60;;
29854;SDS011;16733;48.738;9.106;2022-10-22T18:49:52;10.50;;;2.03;;
29854;SDS011;16733;48.738;9.106;2022-10-22T18:52:18;2.97;;;1.80;;
29854;SDS011;16733;48.738;9.106;2022-10-22T18:55:21;8.23;;;2.33;;
29854;SDS011;16733;48.738;9.106;2022-10-22T18:57:46;3.95;;;1.67;;
29854;SDS011;16733;48.738;9.106;2022-10-22T19:00:12;2.70;;;1.40;;
29854;SDS011;16733;48.738;9.106;2022-10-22T19:02:38;5.43;;;1.55;;
29854;SDS011;16733;48.738;9.106;2022-10-22T19:05:04;5.63;;;1.60;;
29854;SDS011;16733;48.738;9.106;2022-10-22T19:07:30;4.13;;;1.40;;
29854;SDS011;16733;48.738;9.106;2022-10-22T19:09:56;8.32;;;2.40;;
29854;SDS011;16733;48.738;9.106;2022-10-22T19:12:22;7.80;;;2.35;;
29854;SDS011;16733;48.738;9.106;2022-10-22T19:14:48;4.03;;;1.70;;
29854;SDS011;16733;48.738;9.106;2022-10-22T19:17:13;7.88;;;2.13;;
29854;SDS011;16733;48.738;9.106;2022-10-22T19:19:39;3.97;;;1.67;;
29854;SDS011;16733;48.738;9.106;2022-10-22T19:22:05;3.20;;;1.40;;
29854;SDS011;16733;48.738;9.106;2022-10-22T19:24:30;3.33;;;1.55;;
29854;SDS011;16733;48.738;9.106;2022-10-22T19:26:56;5.55;;;1.38;;
29854;SDS011;16733;48.738;9.106;2022-10-22T19:29:21;8.70;;;1.90;;
29854;SDS011;16733;48.738;9.106;2022-10-22T19:31:47;4.47;;;1.73;;
29854;SDS011;16733;48.738;9.106;2022-10-22T19:37:36;3.88;;;1.60;;
29854;SDS011;16733;48.738;9.106;2022-10-22T19:40:03;8.02;;;1.27;;
29854;SDS011;16733;48.738;9.106;2022-10-22T19:45:52;3.92;;;1.38;;
29854;SDS011;16733;48.738;9.106;2022-10-22T19:48:18;4.55;;;1.40;;
29854;SDS011;16733;48.738;9.106;2022-10-22T19:54:06;5.75;;;1.17;;
29854;SDS011;16733;48.738;9.106;2022-10-22T19:56:35;4.18;;;1.52;;
29854;SDS011;16733;48.738;9.106;2022-10-22T20:02:23;4.63;;;1.30;;
29854;SDS011;16733;48.738;9.106;2022-10-22T20:04:50;2.13;;;1.20;;
29854;SDS011;16733;48.738;9.106;2022-10-22T20:07:15;3.55;;;1.35;;
29854;SDS011;16733;48.738;9.106;2022-10-22T20:09:41;6.30;;;1.27;;
29854;SDS011;16733;48.738;9.106;2022-10-22T20:12:06;6.80;;;1.40;;
29854;SDS011;16733;48.738;9.106;2022-10-22T20:14:32;4.18;;;1.45;;
29854;SDS011;16733;48.738;9.106;2022-10-22T20:16:58;7.88;;;1.17;;